sensor_id;sensor_type;location;lat;lon;timestamp;temperature;humidity
39079;DHT22;24829;49.208;12.080;2024-02-28T00:01:59;5.70;99.90
39079;DHT22;24829;49.208;12.080;2024-02-28T00:04:25;5.60;99.90
39079;DHT22;24829;49.208;12.080;2024-02-28T00:06:50;5.60;99.90
39079;DHT22;24829;49.208;12.080;2024-02-28T00:09:16;5.60;99.90
39079;DHT22;24829;49.208;12.080;2024-02-28T00:11:45;5.60;99.90
39079;DHT22;24829;49.208;12.080;2024-02-28T00:14:12;5.60;99.90
39079;DHT22;24829;49.208;12.080;2024-02-28T00:16:44;5.50;99.90
39079;DHT22;24829;49.208;12.080;2024-02-28T00:19:11;5.40;99.90
39079;DHT22;24829;49.208;12.080;2024-02-28T00:21:38;5.30;99.90
39079;DHT22;24829;49.208;12.080;2024-02-28T00:24:03;5.30;99.90
39079;DHT22;24829;49.208;12.080;2024-02-28T00:26:29;5.30;99.90
39079;DHT22;24829;49.208;12.080;2024-02-28T00:28:55;5.20;99.90
39079;DHT22;24829;49.208;12.080;2024-02-28T00:31:20;5.20;99.90
39079;DHT22;24829;49.208;12.080;2024-02-28T00:33:47;5.20;99.90
39079;DHT22;24829;49.208;12.080;2024-02-28T00:36:13;5.20;99.90
39079;DHT22;24829;49.208;12.080;2024-02-28T00:38:38;5.30;99.90
39079;DHT22;24829;49.208;12.080;2024-02-28T00:41:04;5.30;99.90
39079;DHT22;24829;49.208;12.080;2024-02-28T00:43:30;5.40;99.90
39079;DHT22;24829;49.208;12.080;2024-02-28T00:45:55;5.50;99.90
39079;DHT22;24829;49.208;12.080;2024-02-28T00:48:22;5.50;99.90
39079;DHT22;24829;49.208;12.080;2024-02-28T00:50:47;5.60;99.90
39079;DHT22;24829;49.208;12.080;2024-02-28T00:53:13;5.60;99.90
39079;DHT22;24829;49.208;12.080;2024-02-28T00:55:38;5.60;99.90
39079;DHT22;24829;49.208;12.080;2024-02-28T00:58:04;5.70;99.90
39079;DHT22;24829;49.208;12.080;2024-02-28T01:00:30;5.80;99.90
39079;DHT22;24829;49.208;12.080;2024-02-28T01:02:55;5.80;99.90
39079;DHT22;24829;49.208;12.080;2024-02-28T01:05:21;5.80;99.90
39079;DHT22;24829;49.208;12.080;2024-02-28T01:07:46;5.90;99.90
39079;DHT22;24829;49.208;12.080;2024-02-28T01:10:12;5.90;99.90
39079;DHT22;24829;49.208;12.080;2024-02-28T01:12:38;5.80;99.90
39079;DHT22;24829;49.208;12.080;2024-02-28T01:15:04;5.90;99.90
39079;DHT22;24829;49.208;12.080;2024-02-28T01:17:29;5.90;99.90
39079;DHT22;24829;49.208;12.080;2024-02-28T01:19:55;5.90;99.90
39079;DHT22;24829;49.208;12.080;2024-02-28T01:22:21;6.00;99.90
39079;DHT22;24829;49.208;12.080;2024-02-28T01:24:47;5.90;99.90
39079;DHT22;24829;49.208;12.080;2024-02-28T01:27:12;6.00;99.90
39079;DHT22;24829;49.208;12.080;2024-02-28T01:29:38;6.00;99.90
39079;DHT22;24829;49.208;12.080;2024-02-28T01:32:04;6.00;99.90
39079;DHT22;24829;49.208;12.080;2024-02-28T01:34:29;5.90;99.90
39079;DHT22;24829;49.208;12.080;2024-02-28T01:36:55;5.90;99.90
39079;DHT22;24829;49.208;12.080;2024-02-28T01:39:22;5.90;99.90
39079;DHT22;24829;49.208;12.080;2024-02-28T01:41:54;6.00;99.90
39079;DHT22;24829;49.208;12.080;2024-02-28T01:44:21;6.00;99.90
39079;DHT22;24829;49.208;12.080;2024-02-28T01:46:47;6.00;99.90
39079;DHT22;24829;49.208;12.080;2024-02-28T01:49:13;6.00;99.90
39079;DHT22;24829;49.208;12.080;2024-02-28T01:51:41;6.00;99.90
39079;DHT22;24829;49.208;12.080;2024-02-28T01:54:07;6.00;99.90
39079;DHT22;24829;49.208;12.080;2024-02-28T01:56:34;6.00;99.90
39079;DHT22;24829;49.208;12.080;2024-02-28T01:59:00;6.00;99.90
39079;DHT22;24829;49.208;12.080;2024-02-28T02:01:27;5.90;99.90
39079;DHT22;24829;49.208;12.080;2024-02-28T02:03:54;5.90;99.90
39079;DHT22;24829;49.208;12.080;2024-02-28T02:06:20;5.90;99.90
39079;DHT22;24829;49.208;12.080;2024-02-28T02:08:46;5.90;99.90
39079;DHT22;24829;49.208;12.080;2024-02-28T02:11:12;5.90;99.90
39079;DHT22;24829;49.208;12.080;2024-02-28T02:13:52;5.90;99.90
39079;DHT22;24829;49.208;12.080;2024-02-28T02:16:19;5.90;99.90
39079;DHT22;24829;49.208;12.080;2024-02-28T02:18:47;5.80;99.90
39079;DHT22;24829;49.208;12.080;2024-02-28T02:21:17;5.80;99.90
39079;DHT22;24829;49.208;12.080;2024-02-28T02:23:43;5.80;99.90
39079;DHT22;24829;49.208;12.080;2024-02-28T02:26:08;5.80;99.90
39079;DHT22;24829;49.208;12.080;2024-02-28T02:28:34;5.80;99.90
39079;DHT22;24829;49.208;12.080;2024-02-28T02:31:00;5.80;99.90
39079;DHT22;24829;49.208;12.080;2024-02-28T02:33:25;5.80;99.90
39079;DHT22;24829;49.208;12.080;2024-02-28T02:35:54;5.70;99.90
39079;DHT22;24829;49.208;12.080;2024-02-28T02:38:20;5.70;99.90
39079;DHT22;24829;49.208;12.080;2024-02-28T02:40:52;5.70;99.90
39079;DHT22;24829;49.208;12.080;2024-02-28T02:43:18;5.70;99.90
39079;DHT22;24829;49.208;12.080;2024-02-28T02:45:44;5.70;99.90
39079;DHT22;24829;49.208;12.080;2024-02-28T02:48:10;5.80;99.90
39079;DHT22;24829;49.208;12.080;2024-02-28T02:50:36;5.80;99.90
39079;DHT22;24829;49.208;12.080;2024-02-28T02:53:03;5.80;99.90
39079;DHT22;24829;49.208;12.080;2024-02-28T02:55:29;5.80;99.90
39079;DHT22;24829;49.208;12.080;2024-02-28T02:57:54;5.80;99.90
39079;DHT22;24829;49.208;12.080;2024-02-28T03:00:21;5.80;99.90
39079;DHT22;24829;49.208;12.080;2024-02-28T03:02:46;5.80;99.90
39079;DHT22;24829;49.208;12.080;2024-02-28T03:05:12;5.80;99.90
39079;DHT22;24829;49.208;12.080;2024-02-28T03:07:38;5.80;99.90
39079;DHT22;24829;49.208;12.080;2024-02-28T03:10:04;5.80;99.90
39079;DHT22;24829;49.208;12.080;2024-02-28T03:12:30;5.80;99.90
39079;DHT22;24829;49.208;12.080;2024-02-28T03:14:55;5.80;99.90
39079;DHT22;24829;49.208;12.080;2024-02-28T03:17:21;5.70;99.90
39079;DHT22;24829;49.208;12.080;2024-02-28T03:19:46;5.70;99.90
39079;DHT22;24829;49.208;12.080;2024-02-28T03:22:12;5.70;99.90
39079;DHT22;24829;49.208;12.080;2024-02-28T03:24:38;5.60;99.90
39079;DHT22;24829;49.208;12.080;2024-02-28T03:27:04;5.70;99.90
39079;DHT22;24829;49.208;12.080;2024-02-28T03:29:30;5.80;99.90
39079;DHT22;24829;49.208;12.080;2024-02-28T03:31:57;5.70;99.90
39079;DHT22;24829;49.208;12.080;2024-02-28T03:34:23;5.80;99.90
39079;DHT22;24829;49.208;12.080;2024-02-28T03:36:48;5.70;99.90
39079;DHT22;24829;49.208;12.080;2024-02-28T03:39:14;5.80;99.90
39079;DHT22;24829;49.208;12.080;2024-02-28T03:41:39;5.80;99.90
39079;DHT22;24829;49.208;12.080;2024-02-28T03:44:05;5.80;99.90
39079;DHT22;24829;49.208;12.080;2024-02-28T03:46:31;5.80;99.90
39079;DHT22;24829;49.208;12.080;2024-02-28T03:48:56;5.80;99.90
39079;DHT22;24829;49.208;12.080;2024-02-28T03:51:22;5.70;99.90
39079;DHT22;24829;49.208;12.080;2024-02-28T03:53:48;5.70;99.90
39079;DHT22;24829;49.208;12.080;2024-02-28T03:56:24;5.70;99.90
39079;DHT22;24829;49.208;12.080;2024-02-28T03:58:51;5.70;99.90
39079;DHT22;24829;49.208;12.080;2024-02-28T04:01:17;5.70;99.90
39079;DHT22;24829;49.208;12.080;2024-02-28T04:03:43;5.70;99.90
39079;DHT22;24829;49.208;12.080;2024-02-28T04:06:09;5.70;99.90
39079;DHT22;24829;49.208;12.080;2024-02-28T04:08:34;5.70;99.90
39079;DHT22;24829;49.208;12.080;2024-02-28T04:11:00;5.70;99.90
39079;DHT22;24829;49.208;12.080;2024-02-28T04:13:25;5.60;99.90
39079;DHT22;24829;49.208;12.080;2024-02-28T04:15:51;5.60;99.90
39079;DHT22;24829;49.208;12.080;2024-02-28T04:18:17;5.60;99.90
39079;DHT22;24829;49.208;12.080;2024-02-28T04:20:43;5.60;99.90
39079;DHT22;24829;49.208;12.080;2024-02-28T04:23:08;5.60;99.90
39079;DHT22;24829;49.208;12.080;2024-02-28T04:25:34;5.60;99.90
39079;DHT22;24829;49.208;12.080;2024-02-28T04:28:01;5.60;99.90
39079;DHT22;24829;49.208;12.080;2024-02-28T04:30:27;5.60;99.90
39079;DHT22;24829;49.208;12.080;2024-02-28T04:32:53;5.70;99.90
39079;DHT22;24829;49.208;12.080;2024-02-28T04:35:19;5.70;99.90
39079;DHT22;24829;49.208;12.080;2024-02-28T04:37:45;5.60;99.90
39079;DHT22;24829;49.208;12.080;2024-02-28T04:40:11;5.60;99.90
39079;DHT22;24829;49.208;12.080;2024-02-28T04:42:37;5.60;99.90
39079;DHT22;24829;49.208;12.080;2024-02-28T04:45:03;5.60;99.90
39079;DHT22;24829;49.208;12.080;2024-02-28T04:47:29;5.60;99.90
39079;DHT22;24829;49.208;12.080;2024-02-28T04:49:56;5.60;99.90
39079;DHT22;24829;49.208;12.080;2024-02-28T04:52:21;5.60;99.90
39079;DHT22;24829;49.208;12.080;2024-02-28T04:54:47;5.60;99.90
39079;DHT22;24829;49.208;12.080;2024-02-28T04:57:13;5.60;99.90
39079;DHT22;24829;49.208;12.080;2024-02-28T04:59:38;5.60;99.90
39079;DHT22;24829;49.208;12.080;2024-02-28T05:02:04;5.50;99.90
39079;DHT22;24829;49.208;12.080;2024-02-28T05:04:30;5.50;99.90
39079;DHT22;24829;49.208;12.080;2024-02-28T05:06:56;5.50;99.90
39079;DHT22;24829;49.208;12.080;2024-02-28T05:09:21;5.50;99.90
39079;DHT22;24829;49.208;12.080;2024-02-28T05:11:47;5.50;99.90
39079;DHT22;24829;49.208;12.080;2024-02-28T05:14:12;5.50;99.90
39079;DHT22;24829;49.208;12.080;2024-02-28T05:16:38;5.50;99.90
39079;DHT22;24829;49.208;12.080;2024-02-28T05:19:04;5.50;99.90
39079;DHT22;24829;49.208;12.080;2024-02-28T05:21:29;5.50;99.90
39079;DHT22;24829;49.208;12.080;2024-02-28T05:23:55;5.50;99.90
39079;DHT22;24829;49.208;12.080;2024-02-28T05:26:21;5.40;99.90
39079;DHT22;24829;49.208;12.080;2024-02-28T05:28:46;5.40;99.90
39079;DHT22;24829;49.208;12.080;2024-02-28T05:31:23;5.40;99.90
39079;DHT22;24829;49.208;12.080;2024-02-28T05:33:56;5.40;99.90
39079;DHT22;24829;49.208;12.080;2024-02-28T05:36:23;5.40;99.90
39079;DHT22;24829;49.208;12.080;2024-02-28T05:38:49;5.30;99.90
39079;DHT22;24829;49.208;12.080;2024-02-28T05:41:16;5.20;99.90
39079;DHT22;24829;49.208;12.080;2024-02-28T05:43:42;5.20;99.90
39079;DHT22;24829;49.208;12.080;2024-02-28T05:46:08;5.20;99.90
39079;DHT22;24829;49.208;12.080;2024-02-28T05:48:33;5.30;99.90
39079;DHT22;24829;49.208;12.080;2024-02-28T05:51:00;5.30;99.90
39079;DHT22;24829;49.208;12.080;2024-02-28T05:53:26;5.30;99.90
39079;DHT22;24829;49.208;12.080;2024-02-28T05:55:53;5.40;99.90
39079;DHT22;24829;49.208;12.080;2024-02-28T05:58:22;5.40;99.90
39079;DHT22;24829;49.208;12.080;2024-02-28T06:00:48;5.40;99.90
39079;DHT22;24829;49.208;12.080;2024-02-28T06:03:14;5.40;99.90
39079;DHT22;24829;49.208;12.080;2024-02-28T06:05:40;5.50;99.90
39079;DHT22;24829;49.208;12.080;2024-02-28T06:08:06;5.50;99.90
39079;DHT22;24829;49.208;12.080;2024-02-28T06:10:31;5.40;99.90
39079;DHT22;24829;49.208;12.080;2024-02-28T06:12:57;5.40;99.90
39079;DHT22;24829;49.208;12.080;2024-02-28T06:15:22;5.40;99.90
39079;DHT22;24829;49.208;12.080;2024-02-28T06:17:48;5.40;99.90
39079;DHT22;24829;49.208;12.080;2024-02-28T06:20:14;5.50;99.90
39079;DHT22;24829;49.208;12.080;2024-02-28T06:22:39;5.50;99.90
39079;DHT22;24829;49.208;12.080;2024-02-28T06:25:06;5.40;99.90
39079;DHT22;24829;49.208;12.080;2024-02-28T06:27:36;5.40;99.90
39079;DHT22;24829;49.208;12.080;2024-02-28T06:30:02;5.40;99.90
39079;DHT22;24829;49.208;12.080;2024-02-28T06:32:28;5.30;99.90
39079;DHT22;24829;49.208;12.080;2024-02-28T06:34:54;5.30;99.90
39079;DHT22;24829;49.208;12.080;2024-02-28T06:37:20;5.20;99.90
39079;DHT22;24829;49.208;12.080;2024-02-28T06:39:45;5.10;99.90
39079;DHT22;24829;49.208;12.080;2024-02-28T06:42:11;5.10;99.90
39079;DHT22;24829;49.208;12.080;2024-02-28T06:44:36;5.10;99.90
39079;DHT22;24829;49.208;12.080;2024-02-28T06:47:02;5.10;99.90
39079;DHT22;24829;49.208;12.080;2024-02-28T06:49:28;5.20;99.90
39079;DHT22;24829;49.208;12.080;2024-02-28T06:51:53;5.20;99.90
39079;DHT22;24829;49.208;12.080;2024-02-28T06:54:20;5.20;99.90
39079;DHT22;24829;49.208;12.080;2024-02-28T06:56:46;5.20;99.90
39079;DHT22;24829;49.208;12.080;2024-02-28T06:59:12;5.30;99.90
39079;DHT22;24829;49.208;12.080;2024-02-28T07:01:37;5.30;99.90
39079;DHT22;24829;49.208;12.080;2024-02-28T07:04:03;5.40;99.90
39079;DHT22;24829;49.208;12.080;2024-02-28T07:06:29;5.40;99.90
39079;DHT22;24829;49.208;12.080;2024-02-28T07:08:54;5.40;99.90
39079;DHT22;24829;49.208;12.080;2024-02-28T07:11:20;5.40;99.90
39079;DHT22;24829;49.208;12.080;2024-02-28T07:13:47;5.30;99.90
39079;DHT22;24829;49.208;12.080;2024-02-28T07:16:12;5.30;99.90
39079;DHT22;24829;49.208;12.080;2024-02-28T07:18:38;5.20;99.90
39079;DHT22;24829;49.208;12.080;2024-02-28T07:21:03;5.20;99.90
39079;DHT22;24829;49.208;12.080;2024-02-28T07:23:32;5.20;99.90
39079;DHT22;24829;49.208;12.080;2024-02-28T07:25:57;5.30;99.90
39079;DHT22;24829;49.208;12.080;2024-02-28T07:28:23;5.20;99.90
39079;DHT22;24829;49.208;12.080;2024-02-28T07:30:49;5.30;99.90
39079;DHT22;24829;49.208;12.080;2024-02-28T07:33:14;5.30;99.90
39079;DHT22;24829;49.208;12.080;2024-02-28T07:35:47;5.30;99.90
39079;DHT22;24829;49.208;12.080;2024-02-28T07:38:12;5.30;99.90
39079;DHT22;24829;49.208;12.080;2024-02-28T07:40:38;5.30;99.90
39079;DHT22;24829;49.208;12.080;2024-02-28T07:43:04;5.40;99.90
39079;DHT22;24829;49.208;12.080;2024-02-28T07:45:29;5.40;99.90
39079;DHT22;24829;49.208;12.080;2024-02-28T07:47:55;5.50;99.90
39079;DHT22;24829;49.208;12.080;2024-02-28T07:50:21;5.60;99.90
39079;DHT22;24829;49.208;12.080;2024-02-28T07:52:46;5.60;99.90
39079;DHT22;24829;49.208;12.080;2024-02-28T07:55:12;5.60;99.90
39079;DHT22;24829;49.208;12.080;2024-02-28T07:57:37;5.60;99.90
39079;DHT22;24829;49.208;12.080;2024-02-28T08:00:04;5.70;99.90
39079;DHT22;24829;49.208;12.080;2024-02-28T08:02:30;5.60;99.90
39079;DHT22;24829;49.208;12.080;2024-02-28T08:04:56;5.70;99.90
39079;DHT22;24829;49.208;12.080;2024-02-28T08:07:22;5.70;99.90
39079;DHT22;24829;49.208;12.080;2024-02-28T08:09:47;5.70;99.90
39079;DHT22;24829;49.208;12.080;2024-02-28T08:12:13;5.70;99.90
39079;DHT22;24829;49.208;12.080;2024-02-28T08:14:39;5.80;99.90
39079;DHT22;24829;49.208;12.080;2024-02-28T08:17:04;5.70;99.90
39079;DHT22;24829;49.208;12.080;2024-02-28T08:19:30;5.80;99.90
39079;DHT22;24829;49.208;12.080;2024-02-28T08:21:56;5.70;99.90
39079;DHT22;24829;49.208;12.080;2024-02-28T08:24:21;5.70;99.90
39079;DHT22;24829;49.208;12.080;2024-02-28T08:26:47;5.70;99.90
39079;DHT22;24829;49.208;12.080;2024-02-28T08:29:12;5.70;99.90
39079;DHT22;24829;49.208;12.080;2024-02-28T08:31:44;5.80;99.90
39079;DHT22;24829;49.208;12.080;2024-02-28T08:34:10;5.80;99.90
39079;DHT22;24829;49.208;12.080;2024-02-28T08:36:36;5.70;99.90
39079;DHT22;24829;49.208;12.080;2024-02-28T08:39:02;5.80;99.90
39079;DHT22;24829;49.208;12.080;2024-02-28T08:41:33;5.90;99.90
39079;DHT22;24829;49.208;12.080;2024-02-28T08:43:59;5.90;99.90
39079;DHT22;24829;49.208;12.080;2024-02-28T08:46:24;6.00;99.90
39079;DHT22;24829;49.208;12.080;2024-02-28T08:48:50;6.00;99.90
39079;DHT22;24829;49.208;12.080;2024-02-28T08:51:15;6.10;99.90
39079;DHT22;24829;49.208;12.080;2024-02-28T08:53:41;6.10;99.90
39079;DHT22;24829;49.208;12.080;2024-02-28T08:56:07;6.10;99.90
39079;DHT22;24829;49.208;12.080;2024-02-28T08:58:32;6.20;99.90
39079;DHT22;24829;49.208;12.080;2024-02-28T09:00:58;6.20;99.90
39079;DHT22;24829;49.208;12.080;2024-02-28T09:03:23;6.20;99.90
39079;DHT22;24829;49.208;12.080;2024-02-28T09:05:49;6.30;99.90
39079;DHT22;24829;49.208;12.080;2024-02-28T09:08:14;6.40;99.90
39079;DHT22;24829;49.208;12.080;2024-02-28T09:10:40;6.40;99.90
39079;DHT22;24829;49.208;12.080;2024-02-28T09:13:06;6.40;99.90
39079;DHT22;24829;49.208;12.080;2024-02-28T09:15:32;6.40;99.90
39079;DHT22;24829;49.208;12.080;2024-02-28T09:17:59;6.40;99.90
39079;DHT22;24829;49.208;12.080;2024-02-28T09:20:26;6.50;99.90
39079;DHT22;24829;49.208;12.080;2024-02-28T09:22:52;6.60;99.90
39079;DHT22;24829;49.208;12.080;2024-02-28T09:25:17;6.60;99.90
39079;DHT22;24829;49.208;12.080;2024-02-28T09:27:44;6.70;99.90
39079;DHT22;24829;49.208;12.080;2024-02-28T09:30:10;6.80;99.90
39079;DHT22;24829;49.208;12.080;2024-02-28T09:32:35;6.80;99.90
39079;DHT22;24829;49.208;12.080;2024-02-28T09:35:03;6.80;99.90
39079;DHT22;24829;49.208;12.080;2024-02-28T09:37:29;6.80;99.90
39079;DHT22;24829;49.208;12.080;2024-02-28T09:39:55;6.80;99.90
39079;DHT22;24829;49.208;12.080;2024-02-28T09:42:21;6.80;99.90
39079;DHT22;24829;49.208;12.080;2024-02-28T09:44:46;6.80;99.90
39079;DHT22;24829;49.208;12.080;2024-02-28T09:47:13;6.90;99.90
39079;DHT22;24829;49.208;12.080;2024-02-28T09:49:39;6.90;99.90
39079;DHT22;24829;49.208;12.080;2024-02-28T09:52:07;6.90;99.90
39079;DHT22;24829;49.208;12.080;2024-02-28T09:54:32;6.90;99.90
39079;DHT22;24829;49.208;12.080;2024-02-28T09:56:58;6.90;99.90
39079;DHT22;24829;49.208;12.080;2024-02-28T09:59:24;6.90;99.90
39079;DHT22;24829;49.208;12.080;2024-02-28T10:01:57;6.90;99.90
39079;DHT22;24829;49.208;12.080;2024-02-28T10:04:26;6.90;99.90
39079;DHT22;24829;49.208;12.080;2024-02-28T10:06:53;6.90;99.90
39079;DHT22;24829;49.208;12.080;2024-02-28T10:09:18;6.90;99.90
39079;DHT22;24829;49.208;12.080;2024-02-28T10:11:45;6.90;99.90
39079;DHT22;24829;49.208;12.080;2024-02-28T10:14:14;6.80;99.90
39079;DHT22;24829;49.208;12.080;2024-02-28T10:16:42;6.80;99.90
39079;DHT22;24829;49.208;12.080;2024-02-28T10:19:08;6.80;99.90
39079;DHT22;24829;49.208;12.080;2024-02-28T10:21:33;6.80;99.90
39079;DHT22;24829;49.208;12.080;2024-02-28T10:23:59;6.90;99.90
39079;DHT22;24829;49.208;12.080;2024-02-28T10:26:25;6.90;99.90
39079;DHT22;24829;49.208;12.080;2024-02-28T10:28:51;6.90;99.90
39079;DHT22;24829;49.208;12.080;2024-02-28T10:31:17;6.90;99.90
39079;DHT22;24829;49.208;12.080;2024-02-28T10:33:42;6.90;99.90
39079;DHT22;24829;49.208;12.080;2024-02-28T10:36:08;6.90;99.90
39079;DHT22;24829;49.208;12.080;2024-02-28T10:38:34;6.90;99.90
39079;DHT22;24829;49.208;12.080;2024-02-28T10:41:02;6.90;99.90
39079;DHT22;24829;49.208;12.080;2024-02-28T10:43:31;6.90;99.90
39079;DHT22;24829;49.208;12.080;2024-02-28T10:46:00;6.80;99.90
39079;DHT22;24829;49.208;12.080;2024-02-28T10:48:26;6.90;99.90
39079;DHT22;24829;49.208;12.080;2024-02-28T10:50:52;6.80;99.90
39079;DHT22;24829;49.208;12.080;2024-02-28T10:53:22;6.90;99.90
39079;DHT22;24829;49.208;12.080;2024-02-28T10:55:57;6.80;99.90
39079;DHT22;24829;49.208;12.080;2024-02-28T10:58:29;6.80;99.90
39079;DHT22;24829;49.208;12.080;2024-02-28T11:00:58;6.80;99.90
39079;DHT22;24829;49.208;12.080;2024-02-28T11:03:24;6.80;99.90
39079;DHT22;24829;49.208;12.080;2024-02-28T11:05:50;6.80;99.90
39079;DHT22;24829;49.208;12.080;2024-02-28T11:08:23;6.90;99.90
39079;DHT22;24829;49.208;12.080;2024-02-28T11:10:56;6.90;99.90
39079;DHT22;24829;49.208;12.080;2024-02-28T11:13:23;6.90;99.90
39079;DHT22;24829;49.208;12.080;2024-02-28T11:15:49;6.90;99.90
39079;DHT22;24829;49.208;12.080;2024-02-28T11:18:15;6.80;99.90
39079;DHT22;24829;49.208;12.080;2024-02-28T11:20:41;6.80;99.90
39079;DHT22;24829;49.208;12.080;2024-02-28T11:23:09;6.70;99.90
39079;DHT22;24829;49.208;12.080;2024-02-28T11:25:35;6.70;99.90
39079;DHT22;24829;49.208;12.080;2024-02-28T11:28:00;6.80;99.90
39079;DHT22;24829;49.208;12.080;2024-02-28T11:30:26;6.70;99.90
39079;DHT22;24829;49.208;12.080;2024-02-28T11:32:52;6.80;99.90
39079;DHT22;24829;49.208;12.080;2024-02-28T11:35:24;6.90;99.90
39079;DHT22;24829;49.208;12.080;2024-02-28T11:37:49;6.80;99.90
39079;DHT22;24829;49.208;12.080;2024-02-28T11:40:16;6.80;99.90
39079;DHT22;24829;49.208;12.080;2024-02-28T11:42:42;6.80;99.90
39079;DHT22;24829;49.208;12.080;2024-02-28T11:45:11;6.90;99.90
39079;DHT22;24829;49.208;12.080;2024-02-28T11:47:36;6.80;99.90
39079;DHT22;24829;49.208;12.080;2024-02-28T11:53:25;6.80;99.90
39079;DHT22;24829;49.208;12.080;2024-02-28T11:55:54;6.80;99.90
39079;DHT22;24829;49.208;12.080;2024-02-28T11:58:21;6.80;99.90
39079;DHT22;24829;49.208;12.080;2024-02-28T12:00:48;6.70;99.90
39079;DHT22;24829;49.208;12.080;2024-02-28T12:03:14;6.70;99.90
39079;DHT22;24829;49.208;12.080;2024-02-28T12:05:43;6.60;99.90
39079;DHT22;24829;49.208;12.080;2024-02-28T12:08:10;6.60;99.90
39079;DHT22;24829;49.208;12.080;2024-02-28T12:10:36;6.50;99.90
39079;DHT22;24829;49.208;12.080;2024-02-28T12:13:02;6.40;99.90
39079;DHT22;24829;49.208;12.080;2024-02-28T12:15:31;6.50;99.90
39079;DHT22;24829;49.208;12.080;2024-02-28T12:17:57;6.60;99.90
39079;DHT22;24829;49.208;12.080;2024-02-28T12:20:26;6.70;99.90
39079;DHT22;24829;49.208;12.080;2024-02-28T12:22:51;6.70;99.90
39079;DHT22;24829;49.208;12.080;2024-02-28T12:25:17;6.70;99.90
39079;DHT22;24829;49.208;12.080;2024-02-28T12:27:42;6.70;99.90
39079;DHT22;24829;49.208;12.080;2024-02-28T12:30:08;6.70;99.90
39079;DHT22;24829;49.208;12.080;2024-02-28T12:32:34;6.70;99.90
39079;DHT22;24829;49.208;12.080;2024-02-28T12:35:00;6.70;99.90
39079;DHT22;24829;49.208;12.080;2024-02-28T12:37:25;6.80;99.90
39079;DHT22;24829;49.208;12.080;2024-02-28T12:39:51;6.70;99.90
39079;DHT22;24829;49.208;12.080;2024-02-28T12:42:18;6.80;99.90
39079;DHT22;24829;49.208;12.080;2024-02-28T12:44:43;6.70;99.90
39079;DHT22;24829;49.208;12.080;2024-02-28T12:47:12;6.70;99.90
39079;DHT22;24829;49.208;12.080;2024-02-28T12:49:38;6.80;99.90
39079;DHT22;24829;49.208;12.080;2024-02-28T12:52:03;6.70;99.90
39079;DHT22;24829;49.208;12.080;2024-02-28T12:54:30;6.80;99.90
39079;DHT22;24829;49.208;12.080;2024-02-28T12:56:55;6.80;99.90
39079;DHT22;24829;49.208;12.080;2024-02-28T12:59:21;6.80;99.90
39079;DHT22;24829;49.208;12.080;2024-02-28T13:01:47;6.70;99.90
39079;DHT22;24829;49.208;12.080;2024-02-28T13:04:13;6.70;99.90
39079;DHT22;24829;49.208;12.080;2024-02-28T13:06:39;6.80;99.90
39079;DHT22;24829;49.208;12.080;2024-02-28T13:09:05;6.70;99.90
39079;DHT22;24829;49.208;12.080;2024-02-28T13:11:37;6.80;99.90
39079;DHT22;24829;49.208;12.080;2024-02-28T13:14:03;6.80;99.90
39079;DHT22;24829;49.208;12.080;2024-02-28T13:16:28;6.90;99.90
39079;DHT22;24829;49.208;12.080;2024-02-28T13:18:54;6.90;99.90
39079;DHT22;24829;49.208;12.080;2024-02-28T13:21:20;6.90;99.90
39079;DHT22;24829;49.208;12.080;2024-02-28T13:23:45;6.90;99.90
39079;DHT22;24829;49.208;12.080;2024-02-28T13:26:11;6.80;99.90
39079;DHT22;24829;49.208;12.080;2024-02-28T13:28:43;6.80;99.90
39079;DHT22;24829;49.208;12.080;2024-02-28T13:31:09;6.70;99.90
39079;DHT22;24829;49.208;12.080;2024-02-28T13:33:35;6.70;99.90
39079;DHT22;24829;49.208;12.080;2024-02-28T13:36:03;6.70;99.90
39079;DHT22;24829;49.208;12.080;2024-02-28T13:38:28;6.80;99.90
39079;DHT22;24829;49.208;12.080;2024-02-28T13:40:54;6.80;99.90
39079;DHT22;24829;49.208;12.080;2024-02-28T13:43:20;6.80;99.90
39079;DHT22;24829;49.208;12.080;2024-02-28T13:45:49;6.80;99.90
39079;DHT22;24829;49.208;12.080;2024-02-28T13:48:18;6.90;99.90
39079;DHT22;24829;49.208;12.080;2024-02-28T13:50:47;7.00;99.90
39079;DHT22;24829;49.208;12.080;2024-02-28T13:53:14;7.00;99.90
39079;DHT22;24829;49.208;12.080;2024-02-28T13:55:44;7.00;99.90
39079;DHT22;24829;49.208;12.080;2024-02-28T13:58:11;7.10;99.90
39079;DHT22;24829;49.208;12.080;2024-02-28T14:00:37;7.00;99.90
39079;DHT22;24829;49.208;12.080;2024-02-28T14:03:04;7.10;99.90
39079;DHT22;24829;49.208;12.080;2024-02-28T14:05:30;7.00;99.90
39079;DHT22;24829;49.208;12.080;2024-02-28T14:07:56;7.00;99.90
39079;DHT22;24829;49.208;12.080;2024-02-28T14:10:23;7.00;99.90
39079;DHT22;24829;49.208;12.080;2024-02-28T14:12:49;7.10;99.90
39079;DHT22;24829;49.208;12.080;2024-02-28T14:15:15;7.00;99.90
39079;DHT22;24829;49.208;12.080;2024-02-28T14:17:40;6.90;99.90
39079;DHT22;24829;49.208;12.080;2024-02-28T14:20:06;6.90;99.90
39079;DHT22;24829;49.208;12.080;2024-02-28T14:22:32;7.00;99.90
39079;DHT22;24829;49.208;12.080;2024-02-28T14:24:59;7.00;99.90
39079;DHT22;24829;49.208;12.080;2024-02-28T14:27:25;7.10;99.90
39079;DHT22;24829;49.208;12.080;2024-02-28T14:29:55;7.10;99.90
39079;DHT22;24829;49.208;12.080;2024-02-28T14:32:21;7.10;99.90
39079;DHT22;24829;49.208;12.080;2024-02-28T14:34:47;7.10;99.90
39079;DHT22;24829;49.208;12.080;2024-02-28T14:37:14;7.10;99.90
39079;DHT22;24829;49.208;12.080;2024-02-28T14:39:40;7.00;99.90
39079;DHT22;24829;49.208;12.080;2024-02-28T14:42:06;7.00;99.90
39079;DHT22;24829;49.208;12.080;2024-02-28T14:44:34;7.00;99.90
39079;DHT22;24829;49.208;12.080;2024-02-28T14:46:59;7.00;99.90
39079;DHT22;24829;49.208;12.080;2024-02-28T14:49:25;7.00;99.90
39079;DHT22;24829;49.208;12.080;2024-02-28T14:51:50;7.00;99.90
39079;DHT22;24829;49.208;12.080;2024-02-28T14:54:17;6.90;99.90
39079;DHT22;24829;49.208;12.080;2024-02-28T14:56:45;6.90;99.90
39079;DHT22;24829;49.208;12.080;2024-02-28T14:59:10;6.80;99.90
39079;DHT22;24829;49.208;12.080;2024-02-28T15:01:36;6.70;99.90
39079;DHT22;24829;49.208;12.080;2024-02-28T15:04:02;6.70;99.90
39079;DHT22;24829;49.208;12.080;2024-02-28T15:06:28;6.70;99.90
39079;DHT22;24829;49.208;12.080;2024-02-28T15:08:53;6.70;99.90
39079;DHT22;24829;49.208;12.080;2024-02-28T15:11:19;6.70;99.90
39079;DHT22;24829;49.208;12.080;2024-02-28T15:13:44;6.70;99.90
39079;DHT22;24829;49.208;12.080;2024-02-28T15:16:10;6.70;99.90
39079;DHT22;24829;49.208;12.080;2024-02-28T15:18:37;6.70;99.90
39079;DHT22;24829;49.208;12.080;2024-02-28T15:21:02;6.70;99.90
39079;DHT22;24829;49.208;12.080;2024-02-28T15:23:28;6.70;99.90
39079;DHT22;24829;49.208;12.080;2024-02-28T15:25:54;6.70;99.90
39079;DHT22;24829;49.208;12.080;2024-02-28T15:28:20;6.70;99.90